sensor_id;sensor_type;location;lat;lon;timestamp;pressure;altitude;pressure_sealevel;temperature;humidity
20909;BME280;10614;53.198;6.570;2022-08-21T00:00:38;101682.72;;;18.54;nan
20909;BME280;10614;53.198;6.570;2022-08-21T00:02:46;101683.66;;;18.53;nan
20909;BME280;10614;53.198;6.570;2022-08-21T00:04:49;101680.31;;;18.50;nan
20909;BME280;10614;53.198;6.570;2022-08-21T00:06:51;101684.78;;;18.49;nan
20909;BME280;10614;53.198;6.570;2022-08-21T00:08:53;101678.72;;;18.47;nan
20909;BME280;10614;53.198;6.570;2022-08-21T00:10:55;101685.94;;;18.45;nan
20909;BME280;10614;53.198;6.570;2022-08-21T00:12:56;101678.09;;;18.42;nan
20909;BME280;10614;53.198;6.570;2022-08-21T00:14:58;101684.38;;;18.41;nan
20909;BME280;10614;53.198;6.570;2022-08-21T00:17:00;101678.38;;;18.38;nan
20909;BME280;10614;53.198;6.570;2022-08-21T00:19:04;101681.22;;;18.34;nan
20909;BME280;10614;53.198;6.570;2022-08-21T00:21:06;101681.41;;;18.31;nan
20909;BME280;10614;53.198;6.570;2022-08-21T00:23:08;101678.25;;;18.25;nan
20909;BME280;10614;53.198;6.570;2022-08-21T00:25:11;101677.56;;;18.21;nan
20909;BME280;10614;53.198;6.570;2022-08-21T00:27:13;101677.75;;;18.18;nan
20909;BME280;10614;53.198;6.570;2022-08-21T00:29:15;101675.28;;;18.15;nan
20909;BME280;10614;53.198;6.570;2022-08-21T00:31:17;101675.44;;;18.12;nan
20909;BME280;10614;53.198;6.570;2022-08-21T00:33:19;101671.16;;;18.09;nan
20909;BME280;10614;53.198;6.570;2022-08-21T00:35:24;101674.00;;;18.06;nan
20909;BME280;10614;53.198;6.570;2022-08-21T00:37:26;101675.03;;;18.04;nan
20909;BME280;10614;53.198;6.570;2022-08-21T00:39:28;101668.94;;;18.02;nan
20909;BME280;10614;53.198;6.570;2022-08-21T00:41:30;101666.47;;;17.99;nan
20909;BME280;10614;53.198;6.570;2022-08-21T00:43:34;101667.56;;;17.95;nan
20909;BME280;10614;53.198;6.570;2022-08-21T00:45:37;101666.81;;;17.92;nan
20909;BME280;10614;53.198;6.570;2022-08-21T00:47:39;101658.03;;;17.90;nan
20909;BME280;10614;53.198;6.570;2022-08-21T00:49:41;101663.56;;;17.87;nan
20909;BME280;10614;53.198;6.570;2022-08-21T00:51:47;101668.19;;;17.84;nan
20909;BME280;10614;53.198;6.570;2022-08-21T00:53:54;101664.81;;;17.80;nan
20909;BME280;10614;53.198;6.570;2022-08-21T00:55:57;101672.03;;;17.78;nan
20909;BME280;10614;53.198;6.570;2022-08-21T00:58:03;101667.75;;;17.76;nan
20909;BME280;10614;53.198;6.570;2022-08-21T01:00:10;101674.09;;;17.73;nan
20909;BME280;10614;53.198;6.570;2022-08-21T01:02:13;101669.81;;;17.70;nan
20909;BME280;10614;53.198;6.570;2022-08-21T01:04:14;101672.56;;;17.69;nan
20909;BME280;10614;53.198;6.570;2022-08-21T01:06:16;101663.97;;;17.64;nan
20909;BME280;10614;53.198;6.570;2022-08-21T01:08:20;101665.78;;;17.63;nan
20909;BME280;10614;53.198;6.570;2022-08-21T01:10:23;101668.53;;;17.62;nan
20909;BME280;10614;53.198;6.570;2022-08-21T01:12:25;101660.63;;;17.60;nan
20909;BME280;10614;53.198;6.570;2022-08-21T01:14:27;101668.72;;;17.59;nan
20909;BME280;10614;53.198;6.570;2022-08-21T01:16:30;101666.13;;;17.57;nan
20909;BME280;10614;53.198;6.570;2022-08-21T01:18:34;101661.91;;;17.53;nan
20909;BME280;10614;53.198;6.570;2022-08-21T01:20:37;101665.47;;;17.54;nan
20909;BME280;10614;53.198;6.570;2022-08-21T01:22:40;101659.34;;;17.51;nan
20909;BME280;10614;53.198;6.570;2022-08-21T01:24:42;101666.56;;;17.49;nan
20909;BME280;10614;53.198;6.570;2022-08-21T01:26:44;101669.31;;;17.48;nan
20909;BME280;10614;53.198;6.570;2022-08-21T01:28:50;101670.25;;;17.47;nan
20909;BME280;10614;53.198;6.570;2022-08-21T01:30:53;101664.16;;;17.45;nan
20909;BME280;10614;53.198;6.570;2022-08-21T01:32:56;101659.75;;;17.44;nan
20909;BME280;10614;53.198;6.570;2022-08-21T01:34:58;101666.91;;;17.43;nan
20909;BME280;10614;53.198;6.570;2022-08-21T01:36:59;101656.44;;;17.40;nan
20909;BME280;10614;53.198;6.570;2022-08-21T01:39:03;101656.44;;;17.40;nan
20909;BME280;10614;53.198;6.570;2022-08-21T01:41:05;101656.59;;;17.37;nan
20909;BME280;10614;53.198;6.570;2022-08-21T01:43:07;101652.28;;;17.35;nan
20909;BME280;10614;53.198;6.570;2022-08-21T01:45:10;101652.28;;;17.35;nan
20909;BME280;10614;53.198;6.570;2022-08-21T01:47:13;101655.97;;;17.32;nan
20909;BME280;10614;53.198;6.570;2022-08-21T01:49:15;101660.53;;;17.30;nan
20909;BME280;10614;53.198;6.570;2022-08-21T01:51:17;101658.91;;;17.27;nan
20909;BME280;10614;53.198;6.570;2022-08-21T01:53:19;101653.69;;;17.26;nan
20909;BME280;10614;53.198;6.570;2022-08-21T01:55:23;101656.41;;;17.24;nan
20909;BME280;10614;53.198;6.570;2022-08-21T01:57:25;101647.66;;;17.22;nan
20909;BME280;10614;53.198;6.570;2022-08-21T01:59:27;101638.91;;;17.20;nan
20909;BME280;10614;53.198;6.570;2022-08-21T02:01:28;101636.34;;;17.19;nan
20909;BME280;10614;53.198;6.570;2022-08-21T02:03:30;101633.75;;;17.17;nan
20909;BME280;10614;53.198;6.570;2022-08-21T02:05:32;101640.97;;;17.15;nan
20909;BME280;10614;53.198;6.570;2022-08-21T02:07:36;101628.63;;;17.14;nan
20909;BME280;10614;53.198;6.570;2022-08-21T02:09:38;101634.84;;;17.13;nan
20909;BME280;10614;53.198;6.570;2022-08-21T02:11:43;101626.19;;;17.09;nan
20909;BME280;10614;53.198;6.570;2022-08-21T02:13:45;101636.06;;;17.07;nan
20909;BME280;10614;53.198;6.570;2022-08-21T02:15:47;101629.97;;;17.05;nan
20909;BME280;10614;53.198;6.570;2022-08-21T02:17:51;101630.03;;;17.04;nan
20909;BME280;10614;53.198;6.570;2022-08-21T02:19:53;101631.84;;;17.03;nan
20909;BME280;10614;53.198;6.570;2022-08-21T02:21:55;101635.47;;;17.02;nan
20909;BME280;10614;53.198;6.570;2022-08-21T02:23:56;101631.91;;;17.02;nan
20909;BME280;10614;53.198;6.570;2022-08-21T02:26:00;101623.19;;;17.00;nan
20909;BME280;10614;53.198;6.570;2022-08-21T02:28:06;101630.22;;;17.01;nan
20909;BME280;10614;53.198;6.570;2022-08-21T02:30:10;101624.97;;;16.99;nan
20909;BME280;10614;53.198;6.570;2022-08-21T02:32:12;101622.41;;;16.98;nan
20909;BME280;10614;53.198;6.570;2022-08-21T02:34:14;101626.00;;;16.97;nan
20909;BME280;10614;53.198;6.570;2022-08-21T02:36:16;101620.00;;;16.93;nan
20909;BME280;10614;53.198;6.570;2022-08-21T02:38:19;101618.25;;;16.92;nan
20909;BME280;10614;53.198;6.570;2022-08-21T02:40:24;101622.66;;;16.93;nan
20909;BME280;10614;53.198;6.570;2022-08-21T02:42:26;101620.94;;;16.92;nan
20909;BME280;10614;53.198;6.570;2022-08-21T02:44:29;101621.03;;;16.91;nan
20909;BME280;10614;53.198;6.570;2022-08-21T02:46:31;101615.78;;;16.89;nan
20909;BME280;10614;53.198;6.570;2022-08-21T02:48:33;101616.75;;;16.88;nan
20909;BME280;10614;53.198;6.570;2022-08-21T02:50:38;101617.66;;;16.87;nan
20909;BME280;10614;53.198;6.570;2022-08-21T02:52:40;101612.41;;;16.85;nan
20909;BME280;10614;53.198;6.570;2022-08-21T02:54:41;101614.22;;;16.85;nan
20909;BME280;10614;53.198;6.570;2022-08-21T02:56:43;101610.78;;;16.83;nan
20909;BME280;10614;53.198;6.570;2022-08-21T02:58:47;101609.00;;;16.83;nan
20909;BME280;10614;53.198;6.570;2022-08-21T03:00:51;101603.75;;;16.82;nan
20909;BME280;10614;53.198;6.570;2022-08-21T03:02:53;101602.91;;;16.81;nan
20909;BME280;10614;53.198;6.570;2022-08-21T03:04:56;101598.44;;;16.82;nan
20909;BME280;10614;53.198;6.570;2022-08-21T03:06:58;101597.66;;;16.80;nan
20909;BME280;10614;53.198;6.570;2022-08-21T03:08:59;101597.66;;;16.80;nan
20909;BME280;10614;53.198;6.570;2022-08-21T03:11:01;101589.72;;;16.78;nan
20909;BME280;10614;53.198;6.570;2022-08-21T03:13:03;101589.72;;;16.78;nan
20909;BME280;10614;53.198;6.570;2022-08-21T03:15:06;101586.28;;;16.76;nan
20909;BME280;10614;53.198;6.570;2022-08-21T03:17:09;101583.75;;;16.75;nan
20909;BME280;10614;53.198;6.570;2022-08-21T03:19:11;101587.25;;;16.75;nan
20909;BME280;10614;53.198;6.570;2022-08-21T03:21:13;101588.09;;;16.76;nan
20909;BME280;10614;53.198;6.570;2022-08-21T03:23:16;101580.22;;;16.74;nan
20909;BME280;10614;53.198;6.570;2022-08-21T03:25:18;101580.31;;;16.73;nan
20909;BME280;10614;53.198;6.570;2022-08-21T03:27:20;101580.31;;;16.73;nan
20909;BME280;10614;53.198;6.570;2022-08-21T03:29:22;101576.78;;;16.72;nan
20909;BME280;10614;53.198;6.570;2022-08-21T03:31:24;101574.97;;;16.73;nan
20909;BME280;10614;53.198;6.570;2022-08-21T03:33:30;101581.16;;;16.73;nan
20909;BME280;10614;53.198;6.570;2022-08-21T03:35:31;101577.72;;;16.71;nan
20909;BME280;10614;53.198;6.570;2022-08-21T03:37:33;101570.69;;;16.70;nan
20909;BME280;10614;53.198;6.570;2022-08-21T03:39:35;101573.34;;;16.70;nan
20909;BME280;10614;53.198;6.570;2022-08-21T03:41:36;101575.06;;;16.71;nan
20909;BME280;10614;53.198;6.570;2022-08-21T03:43:38;101557.66;;;16.65;nan
20909;BME280;10614;53.198;6.570;2022-08-21T03:45:40;101568.97;;;16.69;nan
20909;BME280;10614;53.198;6.570;2022-08-21T03:47:51;101563.66;;;16.69;nan
20909;BME280;10614;53.198;6.570;2022-08-21T03:49:54;101566.31;;;16.69;nan
20909;BME280;10614;53.198;6.570;2022-08-21T03:51:56;101562.78;;;16.68;nan
20909;BME280;10614;53.198;6.570;2022-08-21T03:53:57;101563.75;;;16.67;nan
20909;BME280;10614;53.198;6.570;2022-08-21T03:55:59;101557.66;;;16.65;nan
20909;BME280;10614;53.198;6.570;2022-08-21T03:58:02;101554.13;;;16.65;nan
20909;BME280;10614;53.198;6.570;2022-08-21T04:00:05;101560.38;;;16.64;nan
20909;BME280;10614;53.198;6.570;2022-08-21T04:02:09;101556.94;;;16.62;nan
20909;BME280;10614;53.198;6.570;2022-08-21T04:04:11;101560.56;;;16.61;nan
20909;BME280;10614;53.198;6.570;2022-08-21T04:06:15;101566.78;;;16.60;nan
20909;BME280;10614;53.198;6.570;2022-08-21T04:08:17;101563.28;;;16.59;nan
20909;BME280;10614;53.198;6.570;2022-08-21T04:10:20;101566.03;;;16.58;nan
20909;BME280;10614;53.198;6.570;2022-08-21T04:12:21;101558.16;;;16.56;nan
20909;BME280;10614;53.198;6.570;2022-08-21T04:14:24;101560.81;;;16.56;nan
20909;BME280;10614;53.198;6.570;2022-08-21T04:16:25;101564.41;;;16.55;nan
20909;BME280;10614;53.198;6.570;2022-08-21T04:18:27;101564.50;;;16.54;nan
20909;BME280;10614;53.198;6.570;2022-08-21T04:20:29;101571.69;;;16.52;nan
20909;BME280;10614;53.198;6.570;2022-08-21T04:22:32;101558.47;;;16.50;nan
20909;BME280;10614;53.198;6.570;2022-08-21T04:24:33;101559.50;;;16.48;nan
20909;BME280;10614;53.198;6.570;2022-08-21T04:26:36;101559.50;;;16.48;nan
20909;BME280;10614;53.198;6.570;2022-08-21T04:28:38;101568.41;;;16.46;nan
20909;BME280;10614;53.198;6.570;2022-08-21T04:30:40;101566.69;;;16.45;nan
20909;BME280;10614;53.198;6.570;2022-08-21T04:32:42;101558.88;;;16.42;nan
20909;BME280;10614;53.198;6.570;2022-08-21T04:34:45;101559.84;;;16.41;nan
20909;BME280;10614;53.198;6.570;2022-08-21T04:36:47;101562.50;;;16.41;nan
20909;BME280;10614;53.198;6.570;2022-08-21T04:38:50;101566.84;;;16.42;nan
20909;BME280;10614;53.198;6.570;2022-08-21T04:40:52;101556.47;;;16.38;nan
20909;BME280;10614;53.198;6.570;2022-08-21T04:42:56;101567.03;;;16.39;nan
20909;BME280;10614;53.198;6.570;2022-08-21T04:44:58;101562.72;;;16.37;nan
20909;BME280;10614;53.198;6.570;2022-08-21T04:47:00;101561.00;;;16.36;nan
20909;BME280;10614;53.198;6.570;2022-08-21T04:49:02;101564.59;;;16.35;nan
20909;BME280;10614;53.198;6.570;2022-08-21T04:51:07;101562.81;;;16.35;nan
20909;BME280;10614;53.198;6.570;2022-08-21T04:53:13;101562.03;;;16.33;nan
20909;BME280;10614;53.198;6.570;2022-08-21T04:55:18;101560.22;;;16.34;nan
20909;BME280;10614;53.198;6.570;2022-08-21T04:57:20;101559.44;;;16.32;nan
20909;BME280;10614;53.198;6.570;2022-08-21T04:59:25;101562.97;;;16.32;nan
20909;BME280;10614;53.198;6.570;2022-08-21T05:01:31;101569.22;;;16.31;nan
20909;BME280;10614;53.198;6.570;2022-08-21T05:03:34;101568.28;;;16.32;nan
20909;BME280;10614;53.198;6.570;2022-08-21T05:05:38;101567.50;;;16.30;nan
20909;BME280;10614;53.198;6.570;2022-08-21T05:07:41;101569.38;;;16.28;nan
20909;BME280;10614;53.198;6.570;2022-08-21T05:09:44;101565.78;;;16.29;nan
20909;BME280;10614;53.198;6.570;2022-08-21T05:11:47;101569.38;;;16.28;nan
20909;BME280;10614;53.198;6.570;2022-08-21T05:13:49;101569.38;;;16.28;nan
20909;BME280;10614;53.198;6.570;2022-08-21T05:15:51;101561.56;;;16.25;nan
20909;BME280;10614;53.198;6.570;2022-08-21T05:17:52;101572.22;;;16.25;nan
20909;BME280;10614;53.198;6.570;2022-08-21T05:19:54;101573.22;;;16.22;nan
20909;BME280;10614;53.198;6.570;2022-08-21T05:21:56;101577.53;;;16.25;nan
20909;BME280;10614;53.198;6.570;2022-08-21T05:23:57;101571.44;;;16.23;nan
20909;BME280;10614;53.198;6.570;2022-08-21T05:25:59;101572.34;;;16.22;nan
20909;BME280;10614;53.198;6.570;2022-08-21T05:28:03;101570.56;;;16.22;nan
20909;BME280;10614;53.198;6.570;2022-08-21T05:30:06;101571.50;;;16.21;nan
20909;BME280;10614;53.198;6.570;2022-08-21T05:32:10;101576.81;;;16.21;nan
20909;BME280;10614;53.198;6.570;2022-08-21T05:34:12;101575.94;;;16.21;nan
20909;BME280;10614;53.198;6.570;2022-08-21T05:36:14;101574.09;;;16.23;nan
20909;BME280;10614;53.198;6.570;2022-08-21T05:38:16;101575.94;;;16.21;nan
20909;BME280;10614;53.198;6.570;2022-08-21T05:40:17;101579.38;;;16.23;nan
20909;BME280;10614;53.198;6.570;2022-08-21T05:42:19;101567.13;;;16.20;nan
20909;BME280;10614;53.198;6.570;2022-08-21T05:44:22;101584.78;;;16.21;nan
20909;BME280;10614;53.198;6.570;2022-08-21T05:46:24;101582.03;;;16.23;nan
20909;BME280;10614;53.198;6.570;2022-08-21T05:48:25;101575.00;;;16.22;nan
20909;BME280;10614;53.198;6.570;2022-08-21T05:50:27;101583.84;;;16.22;nan
20909;BME280;10614;53.198;6.570;2022-08-21T05:52:29;101583.91;;;16.21;nan
20909;BME280;10614;53.198;6.570;2022-08-21T05:54:31;101568.91;;;16.20;nan
20909;BME280;10614;53.198;6.570;2022-08-21T05:56:33;101578.59;;;16.21;nan
20909;BME280;10614;53.198;6.570;2022-08-21T05:58:35;101573.38;;;16.19;nan
20909;BME280;10614;53.198;6.570;2022-08-21T06:00:38;101585.63;;;16.22;nan
20909;BME280;10614;53.198;6.570;2022-08-21T06:02:40;101585.56;;;16.23;nan
20909;BME280;10614;53.198;6.570;2022-08-21T06:04:42;101579.38;;;16.23;nan
20909;BME280;10614;53.198;6.570;2022-08-21T06:06:43;101583.84;;;16.22;nan
20909;BME280;10614;53.198;6.570;2022-08-21T06:08:45;101585.56;;;16.23;nan
20909;BME280;10614;53.198;6.570;2022-08-21T06:10:48;101584.59;;;16.24;nan
20909;BME280;10614;53.198;6.570;2022-08-21T06:12:53;101576.63;;;16.24;nan
20909;BME280;10614;53.198;6.570;2022-08-21T06:14:55;101581.81;;;16.28;nan
20909;BME280;10614;53.198;6.570;2022-08-21T06:17:02;101578.19;;;16.29;nan
20909;BME280;10614;53.198;6.570;2022-08-21T06:19:04;101576.41;;;16.29;nan
20909;BME280;10614;53.198;6.570;2022-08-21T06:21:07;101569.22;;;16.31;nan
20909;BME280;10614;53.198;6.570;2022-08-21T06:23:09;101577.19;;;16.31;nan
20909;BME280;10614;53.198;6.570;2022-08-21T06:25:11;101577.28;;;16.30;nan
20909;BME280;10614;53.198;6.570;2022-08-21T06:27:12;101575.31;;;16.33;nan
20909;BME280;10614;53.198;6.570;2022-08-21T06:29:15;101585.94;;;16.33;nan
20909;BME280;10614;53.198;6.570;2022-08-21T06:31:20;101577.88;;;16.35;nan
20909;BME280;10614;53.198;6.570;2022-08-21T06:33:23;101580.44;;;16.36;nan
20909;BME280;10614;53.198;6.570;2022-08-21T06:35:25;101578.56;;;16.38;nan
20909;BME280;10614;53.198;6.570;2022-08-21T06:37:29;101580.31;;;16.39;nan
20909;BME280;10614;53.198;6.570;2022-08-21T06:39:32;101590.84;;;16.41;nan
20909;BME280;10614;53.198;6.570;2022-08-21T06:41:35;101587.25;;;16.42;nan
20909;BME280;10614;53.198;6.570;2022-08-21T06:43:37;101581.94;;;16.42;nan
20909;BME280;10614;53.198;6.570;2022-08-21T06:45:39;101579.34;;;16.40;nan
20909;BME280;10614;53.198;6.570;2022-08-21T06:47:41;101577.41;;;16.44;nan
20909;BME280;10614;53.198;6.570;2022-08-21T06:49:44;101579.91;;;16.47;nan
20909;BME280;10614;53.198;6.570;2022-08-21T06:51:45;101580.75;;;16.48;nan
20909;BME280;10614;53.198;6.570;2022-08-21T06:53:47;101590.34;;;16.50;nan
20909;BME280;10614;53.198;6.570;2022-08-21T06:55:48;101593.78;;;16.52;nan
20909;BME280;10614;53.198;6.570;2022-08-21T06:57:50;101587.63;;;16.52;nan
20909;BME280;10614;53.198;6.570;2022-08-21T06:59:52;101588.34;;;16.55;nan
20909;BME280;10614;53.198;6.570;2022-08-21T07:01:54;101582.00;;;16.58;nan
20909;BME280;10614;53.198;6.570;2022-08-21T07:03:56;101590.56;;;16.63;nan
20909;BME280;10614;53.198;6.570;2022-08-21T07:05:59;101585.16;;;16.64;nan
20909;BME280;10614;53.198;6.570;2022-08-21T07:08:01;101592.13;;;16.67;nan
20909;BME280;10614;53.198;6.570;2022-08-21T07:10:04;101586.66;;;16.70;nan
20909;BME280;10614;53.198;6.570;2022-08-21T07:12:06;101589.97;;;16.74;nan
20909;BME280;10614;53.198;6.570;2022-08-21T07:14:11;101589.91;;;16.75;nan
20909;BME280;10614;53.198;6.570;2022-08-21T07:16:12;101591.50;;;16.79;nan
20909;BME280;10614;53.198;6.570;2022-08-21T07:18:14;101585.16;;;16.82;nan
20909;BME280;10614;53.198;6.570;2022-08-21T07:20:16;101586.78;;;16.84;nan
20909;BME280;10614;53.198;6.570;2022-08-21T07:22:20;101585.56;;;16.90;nan
20909;BME280;10614;53.198;6.570;2022-08-21T07:24:22;101589.13;;;16.91;nan
20909;BME280;10614;53.198;6.570;2022-08-21T07:26:24;101588.69;;;16.98;nan
20909;BME280;10614;53.198;6.570;2022-08-21T07:28:27;101578.91;;;16.99;nan
20909;BME280;10614;53.198;6.570;2022-08-21T07:30:29;101587.47;;;17.04;nan
20909;BME280;10614;53.198;6.570;2022-08-21T07:32:31;101578.47;;;17.06;nan
20909;BME280;10614;53.198;6.570;2022-08-21T07:34:32;101587.94;;;17.12;nan
20909;BME280;10614;53.198;6.570;2022-08-21T07:36:34;101589.56;;;17.15;nan
20909;BME280;10614;53.198;6.570;2022-08-21T07:38:37;101580.53;;;17.17;nan
20909;BME280;10614;53.198;6.570;2022-08-21T07:40:39;101584.75;;;17.21;nan
20909;BME280;10614;53.198;6.570;2022-08-21T07:42:41;101573.84;;;17.26;nan
20909;BME280;10614;53.198;6.570;2022-08-21T07:44:43;101576.16;;;17.32;nan
20909;BME280;10614;53.198;6.570;2022-08-21T07:46:45;101587.56;;;17.34;nan
20909;BME280;10614;53.198;6.570;2022-08-21T07:48:47;101583.09;;;17.35;nan
20909;BME280;10614;53.198;6.570;2022-08-21T07:50:49;101583.81;;;17.38;nan
20909;BME280;10614;53.198;6.570;2022-08-21T07:52:52;101575.75;;;17.40;nan
20909;BME280;10614;53.198;6.570;2022-08-21T07:54:55;101572.97;;;17.41;nan
20909;BME280;10614;53.198;6.570;2022-08-21T07:56:56;101581.53;;;17.46;nan
20909;BME280;10614;53.198;6.570;2022-08-21T07:58:58;101571.50;;;17.51;nan
20909;BME280;10614;53.198;6.570;2022-08-21T08:01:00;101565.94;;;17.56;nan
20909;BME280;10614;53.198;6.570;2022-08-21T08:03:02;101566.59;;;17.60;nan
20909;BME280;10614;53.198;6.570;2022-08-21T08:05:05;101563.00;;;17.61;nan
20909;BME280;10614;53.198;6.570;2022-08-21T08:07:08;101568.06;;;17.65;nan
20909;BME280;10614;53.198;6.570;2022-08-21T08:09:09;101563.47;;;17.67;nan
20909;BME280;10614;53.198;6.570;2022-08-21T08:11:13;101565.22;;;17.68;nan
20909;BME280;10614;53.198;6.570;2022-08-21T08:13:16;101573.13;;;17.70;nan
20909;BME280;10614;53.198;6.570;2022-08-21T08:15:22;101566.75;;;17.72;nan
20909;BME280;10614;53.198;6.570;2022-08-21T08:17:24;101570.16;;;17.75;nan
20909;BME280;10614;53.198;6.570;2022-08-21T08:19:26;101573.59;;;17.77;nan
20909;BME280;10614;53.198;6.570;2022-08-21T08:21:27;101569.84;;;17.81;nan
20909;BME280;10614;53.198;6.570;2022-08-21T08:23:29;101573.09;;;17.86;nan
20909;BME280;10614;53.198;6.570;2022-08-21T08:25:32;101569.28;;;17.90;nan
20909;BME280;10614;53.198;6.570;2022-08-21T08:27:35;101574.53;;;17.91;nan
20909;BME280;10614;53.198;6.570;2022-08-21T08:29:37;101570.72;;;17.96;nan
20909;BME280;10614;53.198;6.570;2022-08-21T08:31:39;101565.31;;;17.97;nan
20909;BME280;10614;53.198;6.570;2022-08-21T08:33:41;101572.00;;;18.04;nan
20909;BME280;10614;53.198;6.570;2022-08-21T08:35:45;101576.19;;;18.08;nan
20909;BME280;10614;53.198;6.570;2022-08-21T08:37:47;101570.69;;;18.11;nan
20909;BME280;10614;53.198;6.570;2022-08-21T08:39:49;101578.50;;;18.14;nan
20909;BME280;10614;53.198;6.570;2022-08-21T08:41:57;101571.16;;;18.18;nan
20909;BME280;10614;53.198;6.570;2022-08-21T08:44:04;101565.75;;;18.20;nan
20909;BME280;10614;53.198;6.570;2022-08-21T08:46:12;101569.06;;;18.23;nan
20909;BME280;10614;53.198;6.570;2022-08-21T08:48:31;101566.25;;;18.26;nan
20909;BME280;10614;53.198;6.570;2022-08-21T08:50:40;101563.47;;;18.28;nan
20909;BME280;10614;53.198;6.570;2022-08-21T08:52:48;101566.69;;;18.33;nan
20909;BME280;10614;53.198;6.570;2022-08-21T08:54:59;101562.91;;;18.37;nan
20909;BME280;10614;53.198;6.570;2022-08-21T08:57:09;101571.66;;;18.39;nan
20909;BME280;10614;53.198;6.570;2022-08-21T08:59:15;101570.63;;;18.42;nan
20909;BME280;10614;53.198;6.570;2022-08-21T09:01:19;101563.31;;;18.45;nan
20909;BME280;10614;53.198;6.570;2022-08-21T09:03:22;101576.44;;;18.48;nan
20909;BME280;10614;53.198;6.570;2022-08-21T09:05:26;101574.53;;;18.50;nan
20909;BME280;10614;53.198;6.570;2022-08-21T09:07:35;101567.97;;;18.56;nan
20909;BME280;10614;53.198;6.570;2022-08-21T09:09:55;101582.06;;;18.58;nan
20909;BME280;10614;53.198;6.570;2022-08-21T09:12:04;101570.25;;;18.62;nan
20909;BME280;10614;53.198;6.570;2022-08-21T09:14:13;101569.97;;;18.67;nan
20909;BME280;10614;53.198;6.570;2022-08-21T09:16:24;101576.63;;;18.74;nan
20909;BME280;10614;53.198;6.570;2022-08-21T09:18:38;101578.28;;;18.76;nan
20909;BME280;10614;53.198;6.570;2022-08-21T09:20:48;101578.19;;;18.78;nan
20909;BME280;10614;53.198;6.570;2022-08-21T09:23:03;101575.41;;;18.80;nan
20909;BME280;10614;53.198;6.570;2022-08-21T09:25:16;101566.19;;;18.85;nan
20909;BME280;10614;53.198;6.570;2022-08-21T09:27:20;101567.69;;;18.89;nan
20909;BME280;10614;53.198;6.570;2022-08-21T09:29:25;101570.16;;;18.92;nan
20909;BME280;10614;53.198;6.570;2022-08-21T09:31:32;101575.38;;;18.94;nan
20909;BME280;10614;53.198;6.570;2022-08-21T09:33:34;101567.22;;;18.97;nan
20909;BME280;10614;53.198;6.570;2022-08-21T09:35:36;101566.34;;;18.96;nan
20909;BME280;10614;53.198;6.570;2022-08-21T09:37:48;101569.59;;;19.02;nan
20909;BME280;10614;53.198;6.570;2022-08-21T09:39:52;101571.00;;;19.07;nan
20909;BME280;10614;53.198;6.570;2022-08-21T09:41:58;101569.84;;;19.11;nan
20909;BME280;10614;53.198;6.570;2022-08-21T09:44:00;101574.13;;;19.14;nan
20909;BME280;10614;53.198;6.570;2022-08-21T09:46:05;101569.47;;;19.17;nan
20909;BME280;10614;53.198;6.570;2022-08-21T09:48:11;101570.31;;;19.18;nan
20909;BME280;10614;53.198;6.570;2022-08-21T09:50:16;101554.09;;;19.21;nan
20909;BME280;10614;53.198;6.570;2022-08-21T09:52:22;101561.59;;;19.29;nan
20909;BME280;10614;53.198;6.570;2022-08-21T09:54:30;101564.84;;;19.34;nan
20909;BME280;10614;53.198;6.570;2022-08-21T09:56:35;101556.50;;;19.38;nan
20909;BME280;10614;53.198;6.570;2022-08-21T09:58:55;101558.00;;;19.43;nan
20909;BME280;10614;53.198;6.570;2022-08-21T10:00:58;101567.00;;;19.42;nan
20909;BME280;10614;53.198;6.570;2022-08-21T10:03:14;101558.78;;;19.45;nan
20909;BME280;10614;53.198;6.570;2022-08-21T10:05:18;101564.66;;;19.50;nan
20909;BME280;10614;53.198;6.570;2022-08-21T10:07:22;101548.47;;;19.53;nan
20909;BME280;10614;53.198;6.570;2022-08-21T10:09:24;101551.00;;;19.54;nan
20909;BME280;10614;53.198;6.570;2022-08-21T10:11:27;101546.72;;;19.52;nan
20909;BME280;10614;53.198;6.570;2022-08-21T10:13:40;101548.03;;;19.59;nan
20909;BME280;10614;53.198;6.570;2022-08-21T10:15:51;101548.47;;;19.66;nan
20909;BME280;10614;53.198;6.570;2022-08-21T10:18:04;101542.94;;;19.69;nan
20909;BME280;10614;53.198;6.570;2022-08-21T10:20:15;101548.19;;;19.70;nan
20909;BME280;10614;53.198;6.570;2022-08-21T10:22:28;101560.28;;;19.76;nan
20909;BME280;10614;53.198;6.570;2022-08-21T10:24:38;101549.84;;;19.86;nan
20909;BME280;10614;53.198;6.570;2022-08-21T10:26:50;101546.88;;;19.90;nan
20909;BME280;10614;53.198;6.570;2022-08-21T10:29:02;101551.91;;;19.95;nan
20909;BME280;10614;53.198;6.570;2022-08-21T10:31:13;101555.09;;;20.00;nan
20909;BME280;10614;53.198;6.570;2022-08-21T10:33:27;101550.06;;;20.08;nan
20909;BME280;10614;53.198;6.570;2022-08-21T10:35:37;101549.75;;;20.13;nan
20909;BME280;10614;53.198;6.570;2022-08-21T10:37:51;101536.06;;;20.17;nan
20909;BME280;10614;53.198;6.570;2022-08-21T10:39:59;101544.84;;;20.19;nan
20909;BME280;10614;53.198;6.570;2022-08-21T10:42:18;101542.19;;;20.19;nan
20909;BME280;10614;53.198;6.570;2022-08-21T10:44:28;101553.72;;;20.20;nan
20909;BME280;10614;53.198;6.570;2022-08-21T10:46:38;101555.44;;;20.21;nan
20909;BME280;10614;53.198;6.570;2022-08-21T10:48:47;101550.19;;;20.19;nan
20909;BME280;10614;53.198;6.570;2022-08-21T10:50:57;101560.88;;;20.19;nan
20909;BME280;10614;53.198;6.570;2022-08-21T10:53:28;101562.72;;;20.19;nan
20909;BME280;10614;53.198;6.570;2022-08-21T10:55:33;101568.06;;;20.19;nan
20909;BME280;10614;53.198;6.570;2022-08-21T10:57:41;101559.19;;;20.18;nan
20909;BME280;10614;53.198;6.570;2022-08-21T10:59:49;101565.38;;;20.19;nan
20909;BME280;10614;53.198;6.570;2022-08-21T11:01:57;101562.72;;;20.19;nan
20909;BME280;10614;53.198;6.570;2022-08-21T11:04:11;101564.31;;;20.21;nan